Vreme - Novo mesto - 190m - DAVIS Vantage Pro2
Weather data: current torek, 22.10.2019 21:30
Date Time Temp. O. Hum. O. Baro. Rain Wind Direction Direction Wind gust
22.10.2019 21:30 15.1 C 94 % 1022.9 hPa 0.0 mm 0.0 km/h N 0 0.0 km/h
22.10.2019 20:30 16.0 C 93 % 1022.6 hPa 0.0 mm 0.0 km/h N 0 0.0 km/h
22.10.2019 19:30 17.6 C 89 % 1022.6 hPa 0.0 mm 0.0 km/h N 0 0.0 km/h
22.10.2019 18:30 19.6 C 83 % 1022.0 hPa 0.0 mm 1.6 km/h NE 45 3.2 km/h
22.10.2019 17:30 23.3 C 72 % 1021.7 hPa 0.0 mm 0.0 km/h N 0 0.0 km/h
22.10.2019 16:30 27.0 C 57 % 1021.5 hPa 0.0 mm 0.0 km/h S 180 1.6 km/h
22.10.2019 15:30 25.7 C 57 % 1021.9 hPa 0.0 mm 0.0 km/h S 180 1.6 km/h
22.10.2019 14:30 24.3 C 62 % 1022.4 hPa 0.0 mm 0.0 km/h S-SW 200 1.6 km/h
22.10.2019 13:30 23.1 C 66 % 1023.1 hPa 0.0 mm 0.0 km/h SE 135 3.2 km/h
22.10.2019 12:30 21.4 C 71 % 1023.6 hPa 0.0 mm 0.0 km/h S 180 8.0 km/h
22.10.2019 11:30 18.4 C 82 % 1023.8 hPa 0.0 mm 4.8 km/h SW 225 9.7 km/h
22.10.2019 10:30 15.8 C 90 % 1023.8 hPa 0.0 mm 8.0 km/h SW 225 12.9 km/h
22.10.2019 09:30 13.0 C 97 % 1024.0 hPa 0.0 mm 1.6 km/h SW 225 6.4 km/h
22.10.2019 08:30 11.3 C 98 % 1023.6 hPa 0.0 mm 1.6 km/h SW 225 9.7 km/h
22.10.2019 07:30 10.3 C 97 % 1023.3 hPa 0.0 mm 0.0 km/h W-SW 245 3.2 km/h
22.10.2019 06:30 10.8 C 97 % 1023.2 hPa 0.0 mm 1.6 km/h SW 225 6.4 km/h
22.10.2019 05:30 11.0 C 97 % 1023.2 hPa 0.3 mm 1.6 km/h W 270 4.8 km/h
22.10.2019 04:30 11.6 C 97 % 1023.2 hPa 0.0 mm 0.0 km/h W-SW 245 1.6 km/h
22.10.2019 03:30 11.6 C 96 % 1023.2 hPa 0.0 mm 0.0 km/h W-SW 245 3.2 km/h
22.10.2019 02:30 12.4 C 96 % 1023.5 hPa 0.0 mm 0.0 km/h N 0 0.0 km/h
22.10.2019 01:30 12.8 C 95 % 1023.5 hPa 0.0 mm 0.0 km/h N 0 0.0 km/h
22.10.2019 00:30 13.6 C 95 % 1023.1 hPa 0.0 mm 1.6 km/h W-SW 245 4.8 km/h
21.10.2019 23:30 14.3 C 94 % 1023.3 hPa 0.0 mm 0.0 km/h N 0 0.0 km/h
21.10.2019 22:30 15.6 C 93 % 1023.1 hPa 0.0 mm 0.0 km/h N 0 0.0 km/h
21.10.2019 22:00 15.8 C 92 % 1023.0 hPa 0.0 mm 3.2 km/h W 270 6.4 km/h
_ Min-Time 07:30 16:00 16:20 - 22:10 - - 22:20
Minimum _ 10.3 C 54 % 1021.5 hPa - 0.0 km/h - - 0.0 km/h
_ Max-Time 16:20 08:00 09:00 05:10 10:20 - - 10:20
Maximum _ 27.1 C 98 % 1024.0 hPa 0.3 mm 8.0 km/h
S-SW
- - 14.5 km/h
SW
Average _ 16.5 C 86 % 1023.0 hPa #0.3 mm 1.0 km/h SW - 3.3 km/h